Time;durP1;ratioP1;P1;durP2;ratioP2;P2;SDS_P1;SDS_P2;PMS_P1;PMS_P2;Temp;Humidity;BMP_temperature;BMP_pressure;BME280_temperature;BME280_humidity;BME280_pressure;Samples;Min_cycle;Max_cycle;Signal;HPM_P1;HPM_P2
2021/05/15 00:10:54;;;;;;;;;;;;;;;;;;;;;
2021/05/15 00:23:43;;;;;;;15.13;12.97;;;;;;;12.78;69.22;99161.43;125130;1111;103078;-77
2021/05/15 00:27:15;;;;;;;;;;;;;;;;;;;;;
2021/05/15 00:31:47;;;;;;;13.87;11.93;;;;;;;12.76;69.49;99160.68;124458;1117;103233;-77
2021/05/15 00:35:22;;;;;;;;;;;;;;;;;;;;;
2021/05/15 00:39:54;;;;;;;15.70;13.63;;;;;;;12.71;69.29;99160.92;124045;1120;103160;-76
2021/05/15 00:51:48;;;;;;;;;;;;;;;;;;;;;
2021/05/15 00:56:12;;;;;;;15.55;13.15;;;;;;;12.64;69.40;99159.61;123761;1127;103054;-76
2021/05/15 01:00:20;;;;;;;20.05;15.50;;;;;;;12.60;69.19;99168.57;123844;1125;103284;-77
2021/05/15 01:08:33;;;;;;;18.80;14.60;;;;;;;12.52;69.26;99168.14;123882;1121;103305;-77
2021/05/15 01:16:42;;;;;;;16.87;13.00;;;;;;;12.42;69.84;99167.00;123920;1123;103026;-75
2021/05/15 01:20:49;;;;;;;15.85;13.15;;;;;;;12.45;69.99;99165.98;123783;1127;103029;-76
2021/05/15 01:32:55;;;;;;;;;;;;;;;;;;;;;
2021/05/15 01:37:08;;;;;;;16.00;13.90;;;;;;;12.48;70.00;99169.26;123490;1124;103110;-77
2021/05/15 01:48:49;;;;;;;;;;;;;;;12.57;69.65;99173.98;126128;1104;104617;-75
2021/05/15 01:52:56;;;;;;;14.87;10.90;;;;;;;12.55;69.56;99173.20;126110;1104;103211;-77
2021/05/15 02:01:12;;;;;;;11.97;9.67;;;;;;;12.54;69.35;99168.06;125080;1111;102943;-76
2021/05/15 02:05:20;;;;;;;10.25;8.75;;;;;;;12.56;69.40;99169.65;124756;1108;102955;-76
2021/05/15 02:08:52;;;;;;;;;;;;;;;;;;;;;
2021/05/15 02:17:12;;;;;;;;;;;;;;;;;;;;;
2021/05/15 02:25:06;;;;;;;;;;;;;;;;;;;;;
2021/05/15 02:29:38;;;;;;;11.40;9.40;;;;;;;12.54;69.33;99174.13;123564;1130;102805;-77
2021/05/15 02:37:52;;;;;;;9.80;8.80;;;;;;;12.40;69.27;99177.55;123543;1130;103435;-76
2021/05/15 02:49:44;;;;;;;;;;;;;;;;;;;;;
2021/05/15 02:57:47;;;;;;;;;;;;;;;;;;;;;
2021/05/15 03:02:14;;;;;;;9.30;7.60;;;;;;;12.38;69.26;99189.00;125089;1111;102972;-77
2021/05/15 03:05:58;;;;;;;10.77;7.27;;;;;;;12.42;68.96;99195.77;124730;1114;103192;-76
2021/05/15 03:14:38;;;;;;;10.57;7.30;;;;;;;12.48;69.09;99203.26;124473;1117;103053;-75
2021/05/15 03:22:52;;;;;;;;;;;;;;;;;;;;;
2021/05/15 03:31:17;;;;;;;8.85;7.00;;;;;;;12.64;68.57;99206.69;123922;1124;103002;-76
2021/05/15 03:35:08;;;;;;;;;;;;;;;;;;;;;
2021/05/15 03:39:18;;;;;;;;;;;;;;;;;;;;;
2021/05/15 03:47:30;;;;;;;;;;;;;;;;;;;;;
2021/05/15 03:59:54;;;;;;;;;;;;;;;12.71;67.88;99213.25;123576;1130;103033;-76
2021/05/15 04:16:03;;;;;;;8.63;6.67;;;;;;;12.76;67.62;99225.25;126483;1101;103032;-77
2021/05/15 04:23:54;;;;;;;16.00;10.77;;;;;;;12.80;67.06;99221.52;125121;1111;102967;-76
2021/05/15 04:31:56;;;;;;;;;;;;;;;;;;;;;
2021/05/15 04:40:25;;;;;;;9.83;5.90;;;;;;;12.87;66.52;99236.77;124190;1120;103192;-76
2021/05/15 04:43:56;;;;;;;;;;;;;;;;;;;;;
2021/05/15 04:48:28;;;;;;;12.00;7.60;;;;;;;12.93;65.95;99243.44;123730;1127;103288;-75
2021/05/15 04:52:23;;;;;;;8.30;6.30;;;;;;;12.99;65.81;99243.08;123583;1125;103048;-74
2021/05/15 04:56:29;;;;;;;10.70;8.50;;;;;;;13.01;65.23;99246.44;123458;1130;103144;-77
2021/05/15 05:04:25;;;;;;;5.95;4.20;;;;;;;12.85;63.52;99256.10;123579;1130;103031;-76
2021/05/15 05:07:53;;;;;;;;;;;;;;;;;;;;;
2021/05/15 05:16:21;;;;;;;4.90;3.80;;;;;;;12.54;63.57;99273.52;123469;1129;103080;-77
2021/05/15 05:28:31;;;;;;;5.50;3.50;;;;;;;12.40;63.71;99286.54;123616;1127;103253;-76
2021/05/15 05:32:30;;;;;;;4.30;3.70;;;;;;;12.34;63.69;99282.47;123811;1118;102955;-76
2021/05/15 05:36:39;;;;;;;4.97;4.10;;;;;;;12.33;63.75;99282.55;123894;1123;103070;-76
2021/05/15 05:40:38;;;;;;;4.20;3.50;;;;;;;12.34;63.83;99284.23;123966;1121;102274;-77
2021/05/15 05:48:43;;;;;;;4.80;3.20;;;;;;;12.48;63.46;99294.79;123799;1125;102995;-75
2021/05/15 05:56:17;;;;;;;5.10;4.00;;;;;;;12.73;63.21;99298.66;124070;1120;102994;-76
2021/05/15 06:04:36;;;;;;;4.50;3.45;;;;;;;12.97;63.03;99294.67;124231;1112;103083;-76
2021/05/15 06:12:31;;;;;;;5.30;4.33;;;;;;;13.35;62.13;99296.88;123806;1126;103010;-77
2021/05/15 06:16:39;;;;;;;8.25;4.25;;;;;;;13.52;61.77;99307.21;123800;1123;103080;-76
2021/05/15 06:20:09;;;;;;;5.15;3.80;;;;;;;13.62;61.32;99310.95;123779;1125;102991;-77
2021/05/15 06:28:11;;;;;;;;;;;;;;;;;;;;;
2021/05/15 06:32:42;;;;;;;5.70;4.30;;;;;;;13.74;61.02;99325.95;123532;1127;103019;-76
2021/05/15 06:40:18;;;;;;;;;;;;;;;;;;;;;
2021/05/15 06:44:51;;;;;;;6.50;4.40;;;;;;;13.79;60.42;99331.75;123390;1124;103657;-76
2021/05/15 06:51:52;;;;;;;7.10;4.70;;;;;;;13.75;60.55;99345.98;123511;1122;103182;-76
2021/05/15 06:59:52;;;;;;;5.70;4.45;;;;;;;13.76;60.69;99352.06;123773;1120;104770;-77
2021/05/15 07:03:50;;;;;;;7.10;5.40;;;;;;;13.87;60.58;99342.64;123557;1130;103183;-75
2021/05/15 07:15:30;;;;;;;;;;;;;;;;;;;;;
2021/05/15 07:19:19;;;;;;;;;;;;;;;;;;;;;
2021/05/15 07:23:56;;;;;;;5.50;4.30;;;;;;;14.19;59.51;99359.06;123674;1127;103203;-76
2021/05/15 07:28:04;;;;;;;6.30;4.25;;;;;;;14.37;59.13;99366.73;123614;1126;103352;-76
2021/05/15 07:36:10;;;;;;;4.95;3.90;;;;;;;14.82;58.40;99363.03;123272;1132;103089;-76
2021/05/15 07:43:26;;;;;;;5.60;4.70;;;;;;;15.37;57.49;99372.59;123364;1130;103032;-75
2021/05/15 07:47:13;;;;;;;6.25;5.00;;;;;;;15.69;56.86;99376.60;123421;1128;103281;-76
2021/05/15 07:50:42;;;;;;;5.57;4.77;;;;;;;16.29;56.42;99370.72;123693;1119;103120;-76
2021/05/15 07:54:26;;;;;;;;;;;;;;;;;;;;;
2021/05/15 07:58:29;;;;;;;6.60;5.40;;;;;;;17.17;54.53;99366.20;123837;1124;102982;-77
2021/05/15 08:02:28;;;;;;;;;;;;;;;;;;;;;
2021/05/15 08:05:49;;;;;;;;;;;;;;;;;;;;;
2021/05/15 08:09:16;;;;;;;;;;;;;;;;;;;;;
2021/05/15 08:12:33;;;;;;;4.43;3.27;;;;;;;22.13;48.29;99361.80;124986;1111;103170;-76
2021/05/15 08:16:02;;;;;;;;;;;;;;;;;;;;;
2021/05/15 08:19:16;;;;;;;3.57;2.80;;;;;;;24.60;42.93;99357.69;124677;1114;103250;-76
2021/05/15 08:22:07;;;;;;;3.17;2.70;;;;;;;24.48;42.31;99362.45;124582;1110;103139;-76
2021/05/15 08:26:00;;;;;;;2.40;2.20;;;;;;;24.53;41.17;99362.80;125265;1103;102939;-76
2021/05/15 08:28:44;;;;;;;2.33;2.13;;;;;;;23.99;41.01;99364.80;125157;1108;103237;-76
2021/05/15 08:31:34;;;;;;;2.70;2.50;;;;;;;24.83;41.00;99357.93;125783;1107;103158;-78
2021/05/15 08:34:30;;;;;;;3.20;2.90;;;;;;;26.04;38.64;99345.73;125820;1107;103454;-77
2021/05/15 08:37:31;;;;;;;5.63;2.00;;;;;;;27.26;37.84;99350.57;125344;1107;102943;-76
2021/05/15 08:40:24;;;;;;;3.07;2.77;;;;;;;27.58;36.19;99342.30;125006;1111;103134;-77
2021/05/15 08:43:15;;;;;;;2.67;1.93;;;;;;;28.19;35.40;99350.31;125094;1108;103020;-77
2021/05/15 08:46:02;;;;;;;3.20;2.90;;;;;;;28.94;34.36;99343.91;125186;1103;103067;-77
2021/05/15 08:48:52;;;;;;;;;;;;;;;29.18;32.79;99344.38;125710;1108;102937;-77
2021/05/15 08:51:55;;;;;;;3.77;2.43;;;;;;;29.72;32.69;99351.09;125236;1103;103133;-77
2021/05/15 08:54:42;;;;;;;4.03;2.80;;;;;;;29.94;32.06;99344.65;125222;1103;102984;-77
2021/05/15 08:57:39;;;;;;;3.10;2.23;;;;;;;30.30;30.41;99349.88;125882;1100;103156;-77
2021/05/15 09:00:52;;;;;;;2.15;1.75;;;;;;;30.42;29.62;99352.85;126027;1104;103014;-76
2021/05/15 09:03:40;;;;;;;3.60;2.17;;;;;;;29.79;29.26;99351.97;125857;1108;103608;-76
2021/05/15 09:06:30;;;;;;;7.83;2.40;;;;;;;28.89;29.73;99363.23;125280;1102;103323;-77
2021/05/15 09:09:27;;;;;;;5.03;2.40;;;;;;;28.82;30.02;99349.72;125246;1100;103243;-76
2021/05/15 09:12:15;;;;;;;8.43;3.83;;;;;;;29.02;29.15;99347.30;126014;1104;103478;-77
2021/05/15 09:15:23;;;;;;;5.63;2.23;;;;;;;28.54;29.05;99351.41;125892;1107;102955;-77
2021/05/15 09:18:21;;;;;;;3.93;3.50;;;;;;;28.36;29.16;99345.59;125895;1099;102984;-76
2021/05/15 09:21:29;;;;;;;;;;;;;;;;;;;;;
2021/05/15 09:24:39;;;;;;;3.43;2.03;;;;;;;29.10;28.76;99346.36;125837;1105;102971;-77
2021/05/15 09:27:35;;;;;;;2.10;1.70;;;;;;;29.65;27.45;99324.19;126017;1104;104342;-76
2021/05/15 09:30:41;;;;;;;1.80;1.10;;;;;;;29.56;26.92;99321.81;125902;1104;103422;-77
2021/05/15 09:33:31;;;;;;;3.20;1.50;;;;;;;29.55;26.73;99329.05;126027;1104;102969;-76
2021/05/15 09:36:25;;;;;;;3.67;2.30;;;;;;;29.50;26.74;99342.23;126028;1104;103057;-77
2021/05/15 09:39:22;;;;;;;2.28;1.18;;;;;;;29.22;26.05;99349.35;126050;1104;103138;-76
2021/05/15 09:42:10;;;;;;;2.90;1.40;;;;;;;28.88;26.09;99348.16;126141;1101;103010;-77
2021/05/15 09:45:01;;;;;;;2.57;1.60;;;;;;;28.33;25.69;99359.38;126383;1101;103008;-77
2021/05/15 09:47:58;;;;;;;3.73;2.47;;;;;;;27.95;26.65;99340.65;126139;1101;103053;-75
2021/05/15 09:50:46;;;;;;;;;;;;;;;27.34;26.38;99334.47;126122;1103;103022;-77
2021/05/15 09:53:34;;;;;;;3.73;2.28;;;;;;;26.87;27.13;99351.45;126188;1101;102966;-77
2021/05/15 09:56:33;;;;;;;3.35;1.70;;;;;;;26.24;27.20;99354.20;126217;1101;102967;-77
2021/05/15 09:59:46;;;;;;;;;;;;;;;;;;;;;
2021/05/15 10:02:54;;;;;;;5.40;2.27;;;;;;;25.53;27.37;99353.91;126177;1101;103104;-75
2021/05/15 10:06:06;;;;;;;6.50;1.90;;;;;;;25.56;28.27;99360.75;126397;1101;102935;-76
2021/05/15 10:09:35;;;;;;;4.17;2.17;;;;;;;25.96;28.29;99353.73;126392;1097;102955;-77
2021/05/15 10:12:27;;;;;;;5.33;2.03;;;;;;;26.54;27.58;99336.56;126078;1104;102939;-76
2021/05/15 10:15:38;;;;;;;7.03;2.77;;;;;;;26.95;27.64;99358.62;126025;1104;103094;-77
2021/05/15 10:18:37;;;;;;;4.20;2.30;;;;;;;27.41;27.57;99364.86;126078;1104;103112;-78
2021/05/15 10:21:28;;;;;;;5.37;2.30;;;;;;;27.44;26.76;99361.82;126118;1104;103128;-77
2021/05/15 10:24:24;;;;;;;4.70;2.60;;;;;;;27.45;26.56;99355.45;126063;1097;103072;-76
2021/05/15 10:27:19;;;;;;;4.23;1.90;;;;;;;27.38;26.30;99351.83;126066;1104;103160;-77
2021/05/15 10:30:34;;;;;;;9.23;2.50;;;;;;;27.27;25.96;99350.39;126159;1104;103071;-77
2021/05/15 10:33:46;;;;;;;4.07;1.80;;;;;;;27.02;25.75;99357.76;126107;1104;103017;-77
2021/05/15 10:36:49;;;;;;;5.40;2.73;;;;;;;26.72;25.68;99358.55;126063;1104;103065;-77
2021/05/15 10:39:43;;;;;;;3.17;1.97;;;;;;;26.55;25.86;99356.95;126082;1104;102942;-77
2021/05/15 10:42:33;;;;;;;2.50;1.50;;;;;;;26.62;26.46;99358.77;126046;1104;102971;-76
2021/05/15 10:45:54;;;;;;;;;;;;;;;;;;;;;
2021/05/15 10:49:03;;;;;;;;;;;;;;;;;;;;;
2021/05/15 10:52:14;;;;;;;4.03;2.03;;;;;;;25.86;25.96;99368.13;126040;1104;103110;-76
2021/05/15 10:56:24;;;;;;;;;;;;;;;;;;;;;
2021/05/15 10:59:53;;;;;;;3.47;1.80;;;;;;;25.42;26.60;99369.41;125861;1107;102932;-77
2021/05/15 11:03:04;;;;;;;3.03;1.67;;;;;;;25.29;26.40;99370.72;125881;1100;103021;-76
2021/05/15 11:05:56;;;;;;;2.70;2.10;;;;;;;24.88;26.59;99369.77;125849;1107;103109;-76
2021/05/15 11:09:27;;;;;;;;;;;;;;;;;;;;;
2021/05/15 11:13:14;;;;;;;5.57;2.10;;;;;;;24.71;27.13;99374.21;125924;1107;102959;-76
2021/05/15 11:16:08;;;;;;;5.93;2.80;;;;;;;24.56;27.39;99366.98;125915;1105;103035;-77
2021/05/15 11:19:18;;;;;;;3.60;2.40;;;;;;;24.46;27.82;99371.61;125884;1100;103007;-76
2021/05/15 11:22:27;;;;;;;;;;;;;;;;;;;;;
2021/05/15 11:25:49;;;;;;;;;;;;;;;;;;;;;
2021/05/15 11:29:23;;;;;;;2.97;1.90;;;;;;;24.41;27.69;99364.91;125942;1099;103312;-77
2021/05/15 11:33:15;;;;;;;5.50;2.50;;;;;;;24.09;28.01;99375.37;126007;1104;103112;-77
2021/05/15 11:36:14;;;;;;;3.83;2.87;;;;;;;24.02;28.59;99371.64;126310;1096;102997;-77
2021/05/15 11:39:16;;;;;;;4.80;2.83;;;;;;;23.84;28.39;99369.02;126146;1101;102937;-76
2021/05/15 11:42:39;;;;;;;5.87;3.40;;;;;;;23.82;28.62;99365.67;126064;1096;102904;-77
2021/05/15 11:45:39;;;;;;;;;;;;;;;;;;;;;
2021/05/15 11:48:38;;;;;;;6.57;4.33;;;;;;;23.19;28.87;99376.42;126025;1104;102891;-76
2021/05/15 11:52:22;;;;;;;5.13;2.80;;;;;;;22.98;29.48;99368.72;126106;1104;102981;-77
2021/05/15 11:56:11;;;;;;;2.57;2.17;;;;;;;23.09;30.31;99376.47;126078;1096;103416;-77
2021/05/15 11:59:17;;;;;;;3.77;2.17;;;;;;;23.39;29.67;99371.78;125989;1104;103192;-77
2021/05/15 12:02:23;;;;;;;3.97;2.33;;;;;;;23.37;29.67;99366.62;126006;1104;103091;-77
2021/05/15 12:05:20;;;;;;;3.83;2.80;;;;;;;23.38;29.09;99370.95;125966;1104;102968;-76
2021/05/15 12:08:50;;;;;;;7.93;3.97;;;;;;;23.11;29.66;99379.81;126096;1104;103031;-77
2021/05/15 12:11:48;;;;;;;7.70;3.33;;;;;;;23.09;29.69;99373.80;125985;1100;103170;-77
2021/05/15 12:14:50;;;;;;;4.20;2.80;;;;;;;23.11;29.21;99381.63;125871;1105;103437;-77
2021/05/15 12:18:16;;;;;;;6.27;2.40;;;;;;;23.09;29.22;99364.99;126017;1104;103152;-77
2021/05/15 12:21:47;;;;;;;;;;;;;;;;;;;;;
2021/05/15 12:25:09;;;;;;;;;;;;;;;22.83;29.38;99362.23;126021;1104;103201;-76
2021/05/15 12:28:44;;;;;;;3.50;2.33;;;;;;;22.96;29.56;99360.03;125985;1104;103110;-77
2021/05/15 12:32:37;;;;;;;;;;;;;;;;;;;;;
2021/05/15 12:35:59;;;;;;;3.03;2.00;;;;;;;23.07;28.83;99354.50;126024;1104;102955;-77
2021/05/15 12:39:38;;;;;;;;;;;;;;;;;;;;;
2021/05/15 12:43:21;;;;;;;;;;;;;;;;;;;;;
2021/05/15 12:46:25;;;;;;;7.00;3.00;;;;;;;22.30;29.62;99337.13;125903;1107;102961;-77
2021/05/15 12:49:54;;;;;;;4.77;3.37;;;;;;;22.32;29.98;99347.61;125864;1102;103014;-77
2021/05/15 12:53:06;;;;;;;3.27;2.30;;;;;;;22.32;30.32;99339.64;125909;1103;103077;-76
2021/05/15 12:56:36;;;;;;;;;;;;;;;;;;;;;
2021/05/15 13:00:10;;;;;;;;;;;;;;;;;;;;;
2021/05/15 13:03:14;;;;;;;3.47;2.17;;;;;;;22.31;30.20;99328.18;125076;1106;102981;-76
2021/05/15 13:06:37;;;;;;;4.77;2.00;;;;;;;22.40;30.35;99330.92;125099;1111;103087;-77
2021/05/15 13:09:44;;;;;;;2.07;1.80;;;;;;;22.44;30.25;99325.20;125085;1110;103082;-77
2021/05/15 13:12:37;;;;;;;;;;;;;;;22.46;30.74;99333.85;125094;1110;102968;-77
2021/05/15 13:16:10;;;;;;;4.40;3.03;;;;;;;22.45;30.19;99323.38;125425;1108;102800;-76
2021/05/15 13:19:39;;;;;;;6.83;3.80;;;;;;;22.37;30.44;99323.26;125884;1107;102966;-76
2021/05/15 13:22:27;;;;;;;;;;;;;;;22.26;29.96;99319.82;125901;1108;102939;-76
2021/05/15 13:25:48;;;;;;;3.23;2.00;;;;;;;22.24;30.39;99321.76;125898;1107;103265;-76
2021/05/15 13:28:39;;;;;;;3.83;2.03;;;;;;;22.25;30.49;99310.15;125823;1108;103234;-76
2021/05/15 13:31:54;;;;;;;;;;;;;;;;;;;;;
2021/05/15 13:34:54;;;;;;;;;;;;;;;;;;;;;
2021/05/15 13:38:27;;;;;;;7.47;3.23;;;;;;;22.29;31.23;99308.06;125850;1108;103278;-76
2021/05/15 13:41:28;;;;;;;6.60;2.10;;;;;;;22.28;31.07;99307.23;126122;1094;103008;-76
2021/05/15 13:44:23;;;;;;;6.35;3.00;;;;;;;22.27;30.78;99300.25;126455;1101;104696;-77
2021/05/15 13:47:50;;;;;;;5.77;2.53;;;;;;;22.20;31.03;99309.76;126283;1101;102932;-77
2021/05/15 13:50:58;;;;;;;;;;;;;;;;;;;;;
2021/05/15 13:53:59;;;;;;;4.47;2.40;;;;;;;22.12;31.05;99293.73;126123;1096;102816;-77
2021/05/15 13:56:47;;;;;;;3.60;1.90;;;;;;;22.12;31.15;99304.36;126071;1104;103026;-76
2021/05/15 13:59:35;;;;;;;3.23;2.20;;;;;;;22.09;30.88;99301.16;126450;1101;102959;-76
2021/05/15 14:02:28;;;;;;;5.50;1.73;;;;;;;22.07;30.84;99295.97;126249;1101;103043;-77
2021/05/15 14:05:19;;;;;;;3.70;1.60;;;;;;;22.02;30.61;99295.55;126136;1096;102334;-75
2021/05/15 14:08:19;;;;;;;4.15;1.95;;;;;;;21.87;31.08;99291.67;126408;1101;103113;-77
2021/05/15 14:11:26;;;;;;;5.20;2.05;;;;;;;21.71;31.15;99301.06;126183;1101;102257;-77
2021/05/15 14:14:35;;;;;;;3.87;2.87;;;;;;;21.57;31.48;99304.19;126271;1101;102934;-74
2021/05/15 14:17:25;;;;;;;;;;;;;;;21.45;31.33;99296.52;126390;1101;102937;-76
2021/05/15 14:20:28;;;;;;;;;;;;;;;;;;;;;
2021/05/15 14:23:51;;;;;;;;;;;;;;;;;;;;;
2021/05/15 14:27:02;;;;;;;2.80;1.90;;;;;;;21.04;32.12;99299.30;126451;1101;103043;-76
2021/05/15 14:30:06;;;;;;;6.90;3.63;;;;;;;20.96;32.70;99293.83;126207;1101;103057;-75
2021/05/15 14:33:09;;;;;;;5.10;3.43;;;;;;;20.92;32.72;99295.09;126141;1096;102931;-77
2021/05/15 14:36:44;;;;;;;3.43;2.37;;;;;;;20.91;32.75;99287.28;126194;1101;102303;-76
2021/05/15 14:39:55;;;;;;;2.38;2.18;;;;;;;20.83;32.30;99290.63;126392;1101;103025;-77
2021/05/15 14:43:35;;;;;;;2.53;1.70;;;;;;;20.70;32.15;99292.70;126331;1101;102908;-76
2021/05/15 14:46:43;;;;;;;;;;;;;;;;;;;;;
2021/05/15 14:49:52;;;;;;;2.43;1.87;;;;;;;20.57;32.88;99286.80;126318;1101;103146;-76
2021/05/15 14:52:43;;;;;;;2.27;2.00;;;;;;;20.52;32.99;99287.22;126434;1101;102975;-75
2021/05/15 14:56:51;;;;;;;;;;;;;;;;;;;;;
2021/05/15 14:59:38;;;;;;;2.00;1.65;;;;;;;20.31;32.48;99287.27;125884;1107;103310;-76
2021/05/15 15:03:09;;;;;;;4.20;2.40;;;;;;;20.27;32.82;99290.30;125878;1107;103174;-77
2021/05/15 15:06:39;;;;;;;4.30;2.80;;;;;;;20.20;32.58;99277.60;125823;1107;103143;-76
2021/05/15 15:09:53;;;;;;;;;;;;;;;;;;;;;
2021/05/15 15:13:55;;;;;;;2.77;1.60;;;;;;;20.03;32.48;99285.33;125901;1108;102955;-76
2021/05/15 15:17:25;;;;;;;;;;;;;;;19.96;32.69;99286.84;125904;1108;102945;-77
2021/05/15 15:20:42;;;;;;;;;;;;;;;;;;;;;
2021/05/15 15:24:25;;;;;;;5.05;2.40;;;;;;;19.93;33.33;99274.72;125845;1100;106586;-77
2021/05/15 15:28:09;;;;;;;3.47;2.77;;;;;;;19.95;32.79;99278.07;125916;1101;102942;-76
2021/05/15 15:31:27;;;;;;;5.23;3.47;;;;;;;19.96;32.92;99265.67;125899;1107;103077;-77
2021/05/15 15:35:20;;;;;;;;;;;;;;;;;;;;;
2021/05/15 15:38:26;;;;;;;3.87;2.77;;;;;;;19.94;33.16;99273.75;125879;1102;103064;-77
2021/05/15 15:42:09;;;;;;;7.93;5.30;;;;;;;19.91;33.32;99264.23;125939;1107;103017;-76
2021/05/15 15:45:27;;;;;;;;;;;;;;;;;;;;;
2021/05/15 15:48:38;;;;;;;;;;;;;;;;;;;;;
2021/05/15 15:51:50;;;;;;;;;;;;;;;;;;;;;
2021/05/15 15:54:56;;;;;;;4.37;2.93;;;;;;;19.75;32.35;99260.39;125906;1108;103006;-77
2021/05/15 15:58:24;;;;;;;3.47;2.03;;;;;;;19.67;32.34;99258.42;125933;1108;103098;-77
2021/05/15 16:01:45;;;;;;;4.00;2.40;;;;;;;19.63;32.18;99251.72;125902;1108;103116;-76
2021/05/15 16:05:28;;;;;;;;;;;;;;;;;;;;;
2021/05/15 16:08:57;;;;;;;7.17;2.83;;;;;;;19.63;32.48;99254.36;125937;1107;102766;-77
2021/05/15 16:12:06;;;;;;;3.80;2.33;;;;;;;19.58;32.57;99259.22;125945;1107;102971;-77
2021/05/15 16:15:32;;;;;;;3.23;2.30;;;;;;;19.54;32.56;99255.97;126084;1102;103118;-77
2021/05/15 16:19:03;;;;;;;4.00;2.20;;;;;;;19.50;32.61;99253.69;126135;1101;103027;-78
2021/05/15 16:22:39;;;;;;;;;;;;;;;;;;;;;
2021/05/15 16:25:48;;;;;;;2.43;1.77;;;;;;;19.33;32.56;99249.82;126192;1101;102965;-76
2021/05/15 16:29:19;;;;;;;3.63;1.57;;;;;;;19.23;32.59;99247.13;126127;1101;103120;-77
2021/05/15 16:33:19;;;;;;;;;;;;;;;;;;;;;
2021/05/15 16:36:35;;;;;;;3.43;2.43;;;;;;;19.08;32.96;99244.92;125947;1108;103004;-76
2021/05/15 16:40:06;;;;;;;3.13;2.10;;;;;;;19.06;33.16;99236.28;126019;1104;103071;-76
2021/05/15 16:43:35;;;;;;;3.85;2.70;;;;;;;19.01;33.36;99244.57;126090;1104;103089;-76
2021/05/15 16:46:29;;;;;;;4.47;2.60;;;;;;;19.01;33.59;99239.28;126054;1104;103121;-76
2021/05/15 16:50:06;;;;;;;2.70;2.20;;;;;;;19.00;33.68;99237.61;126030;1104;103083;-75
2021/05/15 16:53:00;;;;;;;2.20;1.67;;;;;;;19.00;33.65;99235.80;126061;1104;102939;-75
2021/05/15 16:56:05;;;;;;;;;;;;;;;;;;;;;
2021/05/15 17:03:19;;;;;;;3.33;1.67;;;;;;;19.02;33.49;99231.23;125895;1107;103136;-76
2021/05/15 17:06:30;;;;;;;;;;;;;;;;;;;;;
2021/05/15 17:09:45;;;;;;;3.03;2.30;;;;;;;19.03;33.47;99232.09;125888;1103;103410;-77
2021/05/15 17:12:36;;;;;;;3.23;1.67;;;;;;;19.00;33.22;99232.33;125980;1099;103083;-76
2021/05/15 17:16:00;;;;;;;4.77;2.27;;;;;;;18.99;33.37;99230.65;126089;1104;103108;-76
2021/05/15 17:19:44;;;;;;;;;;;;;;;;;;;;;
2021/05/15 17:22:53;;;;;;;4.83;2.73;;;;;;;18.96;33.58;99229.10;126064;1104;101466;-76
2021/05/15 17:26:01;;;;;;;3.30;2.10;;;;;;;18.97;33.67;99228.14;126091;1104;103080;-76
2021/05/15 17:29:22;;;;;;;2.53;2.07;;;;;;;18.96;33.78;99231.75;126051;1104;103077;-76
2021/05/15 17:32:19;;;;;;;7.87;4.60;;;;;;;18.93;33.79;99228.53;126036;1104;103099;-76
2021/05/15 17:35:40;;;;;;;6.37;4.10;;;;;;;18.94;34.32;99230.20;126109;1104;103059;-77
2021/05/15 17:39:19;;;;;;;12.65;8.15;;;;;;;18.89;34.38;99227.11;126093;1098;102993;-77
2021/05/15 17:47:03;;;;;;;5.30;4.23;;;;;;;18.77;34.24;99226.30;125995;1099;102982;-77
2021/05/15 17:51:13;;;;;;;;;;;;;;;;;;;;;
2021/05/15 17:54:21;;;;;;;;;;;;;;;;;;;;;
2021/05/15 17:58:11;;;;;;;4.27;2.90;;;;;;;18.60;34.81;99219.73;125930;1107;103174;-76
2021/05/15 18:01:28;;;;;;;;;;;;;;;;;;;;;
2021/05/15 18:04:30;;;;;;;;;;;;;;;18.50;34.80;99233.81;125927;1107;103119;-76
2021/05/15 18:08:09;;;;;;;4.87;2.97;;;;;;;18.43;34.74;99234.30;125904;1107;103028;-76
2021/05/15 18:11:56;;;;;;;;;;;;;;;;;;;;;
2021/05/15 18:15:50;;;;;;;2.30;1.90;;;;;;;18.30;34.99;99248.59;125185;1108;102945;-76
2021/05/15 18:19:43;;;;;;;;;;;;;;;;;;;;;
2021/05/15 18:23:36;;;;;;;;;;;;;;;;;;;;;
2021/05/15 18:26:51;;;;;;;9.30;6.63;;;;;;;18.04;35.81;99253.30;125092;1108;103008;-76
2021/05/15 18:30:26;;;;;;;8.13;5.50;;;;;;;17.97;36.14;99249.48;125592;1108;102968;-76
2021/05/15 18:33:55;;;;;;;5.80;2.83;;;;;;;17.86;35.72;99250.31;125103;1110;102927;-76
2021/05/15 18:38:03;;;;;;;4.17;3.67;;;;;;;17.77;35.66;99257.16;125081;1108;102971;-77
2021/05/15 18:42:12;;;;;;;7.10;4.73;;;;;;;17.68;35.95;99249.09;124592;1114;103365;-76
2021/05/15 18:49:54;;;;;;;;;;;;;;;;;;;;;
2021/05/15 18:53:49;;;;;;;7.30;5.50;;;;;;;17.46;36.39;99252.52;125948;1099;102783;-77
2021/05/15 18:57:44;;;;;;;7.03;3.87;;;;;;;17.39;36.77;99256.55;126090;1104;103217;-77
2021/05/15 19:01:45;;;;;;;5.50;4.90;;;;;;;17.32;36.82;99258.83;125983;1099;102948;-76
2021/05/15 19:05:13;;;;;;;;;;;;;;;;;;;;;
2021/05/15 19:09:07;;;;;;;;;;;;;;;;;;;;;
2021/05/15 19:13:20;;;;;;;9.00;4.67;;;;;;;17.15;37.13;99256.61;125029;1111;102974;-77
2021/05/15 19:17:53;;;;;;;5.48;3.38;;;;;;;17.08;37.20;99260.67;124700;1114;102956;-76
2021/05/15 19:20:38;;;;;;;5.60;3.50;;;;;;;17.01;37.80;99257.64;124296;1117;103151;-76
2021/05/15 19:24:11;;;;;;;;;;;;;;;;;;;;;
2021/05/15 19:27:46;;;;;;;6.65;4.25;;;;;;;16.90;38.06;99250.55;124420;1113;102994;-76
2021/05/15 19:31:40;;;;;;;6.37;4.50;;;;;;;16.86;38.02;99248.23;124381;1117;103085;-76
2021/05/15 19:35:12;;;;;;;8.15;4.30;;;;;;;16.77;38.51;99255.03;124143;1120;103155;-77
2021/05/15 19:42:35;;;;;;;8.43;5.30;;;;;;;16.62;38.61;99242.95;126484;1091;102963;-76
2021/05/15 19:46:37;;;;;;;8.57;4.90;;;;;;;16.56;38.88;99241.61;126310;1096;103033;-76
2021/05/15 19:50:25;;;;;;;;;;;;;;;;;;;;;
2021/05/15 19:54:21;;;;;;;7.13;4.15;;;;;;;16.42;39.25;99251.45;126085;1100;103071;-76
2021/05/15 19:58:23;;;;;;;6.23;3.70;;;;;;;16.36;39.30;99251.91;125905;1108;102936;-77
2021/05/15 20:02:14;;;;;;;15.13;8.23;;;;;;;16.30;39.42;99254.00;125924;1102;102993;-76
2021/05/15 20:05:35;;;;;;;;;;;;;;;;;;;;;
2021/05/15 20:09:11;;;;;;;9.83;5.10;;;;;;;16.19;39.67;99253.94;125792;1108;102958;-76
2021/05/15 20:13:13;;;;;;;6.10;4.50;;;;;;;16.13;39.55;99259.61;125603;1108;103171;-76
2021/05/15 20:17:10;;;;;;;;;;;;;;;;;;;;;
2021/05/15 20:20:47;;;;;;;;;;;;;;;;;;;;;
2021/05/15 20:24:40;;;;;;;8.30;5.67;;;;;;;15.97;40.60;99262.48;125083;1111;102966;-76
2021/05/15 20:32:00;;;;;;;10.17;5.33;;;;;;;15.88;40.69;99264.92;125042;1110;103224;-76
2021/05/15 20:35:58;;;;;;;;;;;;;;;;;;;;;
2021/05/15 20:39:33;;;;;;;;;;;;;;;;;;;;;
2021/05/15 20:43:08;;;;;;;8.20;5.10;;;;;;;15.80;41.38;99256.70;125079;1111;102942;-76
2021/05/15 20:46:58;;;;;;;8.55;5.30;;;;;;;15.76;41.67;99255.25;125096;1105;103145;-76
2021/05/15 20:50:59;;;;;;;10.80;5.07;;;;;;;15.71;41.56;99258.20;125062;1111;103084;-77
2021/05/15 20:54:19;;;;;;;;;;;;;;;;;;;;;
2021/05/15 20:58:20;;;;;;;11.00;5.80;;;;;;;15.63;41.93;99256.11;125369;1107;103112;-76
2021/05/15 21:02:00;;;;;;;8.03;5.30;;;;;;;15.59;42.03;99248.52;125063;1111;103390;-76
2021/05/15 21:05:58;;;;;;;;;;;;;;;;;;;;;
2021/05/15 21:09:51;;;;;;;8.50;5.60;;;;;;;15.54;41.98;99240.09;125051;1111;103765;-76
2021/05/15 21:13:27;;;;;;;7.10;5.07;;;;;;;15.51;42.36;99240.30;125775;1108;103122;-76
2021/05/15 21:17:14;;;;;;;8.47;6.17;;;;;;;15.49;42.31;99243.03;125937;1108;103370;-77
2021/05/15 21:21:33;;;;;;;;;;;;;;;;;;;;;
2021/05/15 21:25:43;;;;;;;11.00;6.40;;;;;;;15.43;43.02;99251.31;124517;1117;103706;-77
2021/05/15 21:29:34;;;;;;;11.17;5.10;;;;;;;15.38;43.11;99245.54;124160;1120;104745;-77
2021/05/15 21:37:26;;;;;;;7.18;4.73;;;;;;;15.23;43.14;99242.16;126450;1090;102994;-75
2021/05/15 21:41:25;;;;;;;9.43;5.07;;;;;;;15.18;43.64;99246.04;126052;1104;102979;-76
2021/05/15 21:45:06;;;;;;;;;;;;;;;;;;;;;
2021/05/15 21:48:59;;;;;;;11.07;5.60;;;;;;;15.08;43.82;99228.29;125915;1107;104670;-77
2021/05/15 21:53:09;;;;;;;9.73;6.30;;;;;;;15.05;44.04;99217.13;125887;1107;103036;-76
2021/05/15 21:57:20;;;;;;;9.40;6.30;;;;;;;15.03;44.04;99219.02;125150;1111;103757;-77
2021/05/15 22:05:20;;;;;;;;;;;;;;;;;;;;;
2021/05/15 22:09:19;;;;;;;;;;;;;;;;;;;;;
2021/05/15 22:17:45;;;;;;;;;;;;;;;;;;;;;
2021/05/15 22:21:50;;;;;;;11.90;5.90;;;;;;;14.91;44.83;99212.81;123865;1121;103028;-77
2021/05/15 22:25:49;;;;;;;9.40;6.35;;;;;;;14.91;44.67;99215.44;123908;1120;103034;-76
2021/05/15 22:41:49;;;;;;;9.00;5.40;;;;;;;14.93;44.89;99204.83;123728;1127;103144;-76